• Join FlightAware (Why Join?)
  • Login
  • US Flag 
06:50AM EST


 

Airport Tracker/Info


-or-


 

Live Flight TrackerFlight Track Log ✈ N349PS ✈ 21-Mar-2014 ✈ KCRE - KSMS

Flight Track Log - Related Links

Times and Time Zones

All times are in EDT time to prevent confusion due to time zone crossing. See the N349PS flight status page for this flight to view local times or setup timezone preferences in your user account.

Time Position Orientation Groundspeed Altitude Reporting Facility
EDT Latitude Longitude Course Direction KTS MPH feet Rate Location/Type
04:45PM 33.8968 -79.4554 278° West  Level FlightAware Approximate
04:46PM 33.9009 -79.4926 277° West  Level FlightAware Approximate
04:47PM 33.9045 -79.5299 277° West  Level FlightAware Approximate
04:48PM 33.9080 -79.5673 277° West  Level FlightAware Approximate
04:49PM 33.9116 -79.6046 277° West  Level FlightAware Approximate
04:50PM 33.9151 -79.6419 277° West  Level FlightAware Approximate
04:51PM 33.9186 -79.6792 277° West  Level FlightAware Approximate
04:52PM 33.9222 -79.7166 276° West  Level FlightAware Approximate
04:53PM 33.9257 -79.7539 276° West  Level FlightAware Approximate
04:54PM 33.9292 -79.7913 276° West  Level FlightAware Approximate
04:55PM 33.9326 -79.8286 276° West  Level FlightAware Approximate
04:56PM 33.9361 -79.8660 276° West  Level FlightAware Approximate
04:57PM 33.9396 -79.9033 276° West  Level FlightAware Approximate
04:58PM 33.9430 -79.9407 276° West  Level FlightAware Approximate
04:59PM 33.9464 -79.9780 276° West  Level FlightAware Approximate
05:00PM 33.9499 -80.0154 276° West  Level FlightAware Approximate
05:01PM 33.9500 -80.0529 270° West  Level FlightAware Approximate
05:02PM 33.9539 -80.0901 281° West  Level FlightAware Approximate
05:03PM 33.9601 -80.1269 281° West  Level FlightAware Approximate
05:04PM 33.9662 -80.1638 281° West  Level FlightAware Approximate
05:05PM 33.9724 -80.2006 281° West  Level FlightAware Approximate
05:06PM 33.9785 -80.2375 281° West  Level FlightAware Approximate
05:07PM 33.9833 -80.2745 270° West  Level FlightAware Approximate
05:08PM 33.9833 -80.3121 270° West  Level FlightAware Approximate
05:09PM 33.9833 -80.3497 270° West  Level FlightAware Approximate
05:10PM 33.9833 -80.3500 270° West  Level FlightAware Approximate